createdAt,value
2023-02-21T00:00:08.817Z,13.07
2023-02-21T00:02:54.404Z,13.23
2023-02-21T00:05:39.985Z,14.20
2023-02-21T00:08:25.635Z,15.13
2023-02-21T00:11:11.227Z,14.30
2023-02-21T00:13:58.322Z,14.07
2023-02-21T00:16:43.953Z,13.60
2023-02-21T00:19:29.509Z,12.67
2023-02-21T00:22:15.105Z,12.47
2023-02-21T00:25:00.665Z,13.13
2023-02-21T00:27:46.132Z,13.60
2023-02-21T00:30:34.747Z,13.47
2023-02-21T00:33:20.556Z,13.83
2023-02-21T00:36:05.825Z,13.53
2023-02-21T00:38:51.364Z,13.77
2023-02-21T00:41:36.705Z,14.13
2023-02-21T00:44:21.957Z,15.03
2023-02-21T00:47:08.593Z,14.57
2023-02-21T00:49:54.063Z,15.50
2023-02-21T00:52:39.666Z,15.30
2023-02-21T00:55:26.026Z,14.97
2023-02-21T00:58:11.414Z,15.43
2023-02-21T01:00:57.094Z,15.97
2023-02-21T01:03:44.045Z,14.63
2023-02-21T01:06:30.614Z,14.77
2023-02-21T01:09:16.426Z,15.00
2023-02-21T01:12:02.012Z,15.30
2023-02-21T01:14:47.757Z,14.27
2023-02-21T01:17:33.143Z,13.53
2023-02-21T01:20:20.508Z,14.30
2023-02-21T01:23:06.055Z,13.50
2023-02-21T01:25:51.635Z,13.77
2023-02-21T01:28:37.299Z,11.83
2023-02-21T01:31:22.929Z,13.05
2023-02-21T01:34:08.462Z,10.07
2023-02-21T01:36:55.391Z,9.83
2023-02-21T01:39:40.753Z,7.93
2023-02-21T01:42:28.476Z,8.53
2023-02-21T01:46:01.034Z,8.50
2023-02-21T01:48:48.962Z,7.20
2023-02-21T01:51:39.132Z,7.17
2023-02-21T01:54:27.482Z,7.90
2023-02-21T01:57:14.699Z,7.30
2023-02-21T02:00:00.719Z,7.57
2023-02-21T02:02:51.360Z,8.00
2023-02-21T02:05:36.994Z,8.20
2023-02-21T02:08:22.666Z,9.23
2023-02-21T02:11:17.164Z,10.67
2023-02-21T02:14:04.666Z,12.40
2023-02-21T02:16:40.644Z,13.47
2023-02-21T02:19:37.557Z,12.87
2023-02-21T02:22:52.063Z,13.23
2023-02-21T02:25:31.475Z,14.37
2023-02-21T02:28:18.793Z,14.03
2023-02-21T02:31:18.410Z,12.30
2023-02-21T02:34:22.560Z,12.93
2023-02-21T02:36:53.039Z,11.97
2023-02-21T02:39:29.764Z,11.67
2023-02-21T02:42:07.498Z,12.67
2023-02-21T02:44:38.849Z,11.70
2023-02-21T02:47:10.485Z,11.60
2023-02-21T02:49:43.033Z,12.30
2023-02-21T02:52:10.422Z,12.30
2023-02-21T02:54:37.479Z,11.27
2023-02-21T02:57:10.407Z,11.87
2023-02-21T02:59:40.833Z,10.60
2023-02-21T03:02:36.983Z,11.47
2023-02-21T03:05:18.041Z,10.90
2023-02-21T03:07:52.247Z,10.27
2023-02-21T03:10:25.278Z,10.97
2023-02-21T03:13:00.960Z,12.30
2023-02-21T03:15:34.019Z,12.10
2023-02-21T03:18:07.106Z,11.93
2023-02-21T03:20:36.863Z,12.40
2023-02-21T03:23:05.470Z,11.53
2023-02-21T03:25:34.279Z,12.63
2023-02-21T03:28:02.370Z,13.40
2023-02-21T03:30:30.106Z,10.80
2023-02-21T03:32:57.946Z,10.53
2023-02-21T03:35:31.826Z,11.93
2023-02-21T03:38:00.119Z,11.80
2023-02-21T03:40:28.972Z,11.27
2023-02-21T03:42:57.171Z,11.13
2023-02-21T03:45:24.331Z,11.77
2023-02-21T03:47:51.197Z,12.07
2023-02-21T03:50:18.415Z,11.67
2023-02-21T03:52:45.360Z,12.57
2023-02-21T03:55:13.552Z,12.60
2023-02-21T03:57:40.464Z,12.00
2023-02-21T04:00:08.642Z,11.43
2023-02-21T04:02:35.466Z,10.13
2023-02-21T04:05:02.849Z,11.40
2023-02-21T04:07:29.731Z,10.83
2023-02-21T04:09:56.544Z,10.07
2023-02-21T04:12:25.199Z,10.40
2023-02-21T04:14:52.673Z,10.17
2023-02-21T04:17:19.802Z,11.43
2023-02-21T04:19:46.730Z,10.30
2023-02-21T04:22:13.589Z,9.43
2023-02-21T04:24:40.464Z,9.90
2023-02-21T04:27:07.547Z,9.47
2023-02-21T04:29:35.741Z,9.53
2023-02-21T04:32:03.281Z,9.63
2023-02-21T04:34:30.171Z,9.60
2023-02-21T04:36:57.002Z,9.30
2023-02-21T04:39:23.873Z,9.70
2023-02-21T04:41:50.757Z,8.60
2023-02-21T04:44:18.265Z,9.67
2023-02-21T04:46:46.495Z,8.90
2023-02-21T04:49:13.768Z,9.27
2023-02-21T04:51:41.093Z,9.53
2023-02-21T04:54:08.010Z,10.07
2023-02-21T04:56:34.973Z,9.77
2023-02-21T04:59:01.860Z,8.90
2023-02-21T05:01:31.218Z,10.17
2023-02-21T05:04:00.531Z,9.03
2023-02-21T05:06:28.923Z,10.10
2023-02-21T05:08:55.958Z,9.23
2023-02-21T05:11:23.905Z,10.63
2023-02-21T05:13:51.317Z,10.13
2023-02-21T05:16:19.806Z,10.33
2023-02-21T05:18:48.509Z,11.83
2023-02-21T05:21:18.912Z,10.33
2023-02-21T05:23:58.466Z,10.57
2023-02-21T05:26:26.981Z,10.27
2023-02-21T05:28:54.747Z,10.47
2023-02-21T05:31:21.713Z,9.40
2023-02-21T05:33:48.627Z,10.93
2023-02-21T05:36:17.944Z,10.37
2023-02-21T05:38:46.381Z,10.70
2023-02-21T05:41:13.959Z,9.77
2023-02-21T05:43:43.262Z,10.67
2023-02-21T05:46:18.849Z,10.23
2023-02-21T05:48:45.915Z,9.67
2023-02-21T05:51:13.215Z,9.73
2023-02-21T05:53:41.602Z,9.77
2023-02-21T05:56:10.535Z,9.00
2023-02-21T05:58:37.569Z,9.10
2023-02-21T06:01:05.177Z,9.50
2023-02-21T06:03:32.155Z,9.17
2023-02-21T06:05:59.101Z,9.50
2023-02-21T06:08:26.007Z,9.03
2023-02-21T06:10:54.350Z,8.40
2023-02-21T06:13:21.260Z,8.30
2023-02-21T06:15:48.087Z,8.33
2023-02-21T06:18:15.662Z,8.67
2023-02-21T06:20:43.648Z,8.20
2023-02-21T06:23:10.425Z,9.27
2023-02-21T06:25:37.303Z,11.70
2023-02-21T06:28:05.552Z,18.83
2023-02-21T06:30:32.440Z,18.87
2023-02-21T06:32:59.312Z,29.20
2023-02-21T06:35:26.190Z,13.87
2023-02-21T06:37:53.115Z,9.10
2023-02-21T06:40:20.047Z,9.10
2023-02-21T06:42:46.973Z,8.57
2023-02-21T06:45:15.261Z,8.80
2023-02-21T06:47:42.127Z,9.07
2023-02-21T06:50:10.369Z,16.80
2023-02-21T06:52:37.301Z,12.70
2023-02-21T06:55:04.753Z,8.97
2023-02-21T06:57:31.628Z,9.83
2023-02-21T06:59:58.477Z,8.47
2023-02-21T07:02:26.782Z,10.00
2023-02-21T07:04:53.692Z,8.87
2023-02-21T07:07:20.541Z,9.07
2023-02-21T07:09:47.418Z,9.43
2023-02-21T07:12:14.352Z,16.80
2023-02-21T07:14:41.163Z,10.60
2023-02-21T07:17:08.002Z,9.67
2023-02-21T07:19:36.182Z,10.13
2023-02-21T07:22:03.089Z,9.50
2023-02-21T07:24:30.037Z,8.70
2023-02-21T07:26:57.033Z,9.53
2023-02-21T07:29:24.509Z,8.70
2023-02-21T07:31:51.558Z,9.17
2023-02-21T07:34:19.974Z,9.17
2023-02-21T07:36:48.252Z,9.70
2023-02-21T07:39:15.305Z,9.33
2023-02-21T07:41:42.114Z,9.90
2023-02-21T07:44:10.111Z,9.80
2023-02-21T07:46:37.058Z,9.83
2023-02-21T07:49:03.887Z,8.43
2023-02-21T07:51:31.328Z,10.67
2023-02-21T07:53:59.517Z,10.27
2023-02-21T07:56:26.421Z,9.47
2023-02-21T07:58:53.481Z,9.87
2023-02-21T08:01:23.105Z,8.97
2023-02-21T08:03:50.343Z,9.67
2023-02-21T08:06:18.443Z,9.73
2023-02-21T08:08:45.627Z,9.87
2023-02-21T08:11:14.245Z,10.27
2023-02-21T08:13:41.256Z,9.17
2023-02-21T08:16:08.087Z,9.67
2023-02-21T08:18:35.011Z,10.30
2023-02-21T08:21:02.022Z,11.00
2023-02-21T08:23:28.968Z,10.30
2023-02-21T08:25:55.843Z,10.13
2023-02-21T08:28:24.108Z,9.63
2023-02-21T08:30:50.990Z,9.57
2023-02-21T08:33:17.909Z,10.80
2023-02-21T08:35:44.802Z,9.23
2023-02-21T08:38:11.637Z,9.93
2023-02-21T08:40:38.553Z,9.20
2023-02-21T08:43:05.956Z,9.27
2023-02-21T08:45:34.219Z,9.53
2023-02-21T08:48:01.272Z,8.90
2023-02-21T08:50:29.165Z,10.33
2023-02-21T08:52:56.789Z,10.00
2023-02-21T08:55:23.914Z,10.00
2023-02-21T08:57:53.073Z,10.10
2023-02-21T09:00:29.131Z,10.13
2023-02-21T09:03:02.396Z,10.70
2023-02-21T09:05:31.545Z,9.70
2023-02-21T09:08:01.268Z,10.03
2023-02-21T09:10:30.496Z,10.13
2023-02-21T09:12:57.586Z,9.47
2023-02-21T09:15:24.388Z,9.60
2023-02-21T09:17:51.333Z,10.00
2023-02-21T09:20:23.716Z,10.67
2023-02-21T09:22:50.946Z,10.10
2023-02-21T09:25:22.915Z,11.10
2023-02-21T09:27:50.288Z,11.37
2023-02-21T09:30:21.739Z,11.27
2023-02-21T09:32:48.973Z,10.90
2023-02-21T09:35:15.914Z,13.03
2023-02-21T09:37:45.426Z,11.17
2023-02-21T09:40:18.112Z,11.03
2023-02-21T09:42:45.403Z,10.67
2023-02-21T09:45:16.356Z,10.10
2023-02-21T09:47:44.426Z,12.63
2023-02-21T09:50:14.886Z,9.73
2023-02-21T09:52:44.209Z,11.82
2023-02-21T09:55:21.845Z,10.30
2023-02-21T09:57:48.831Z,10.50
2023-02-21T10:00:21.905Z,11.23
2023-02-21T10:03:01.614Z,11.50
2023-02-21T10:05:39.218Z,11.53
2023-02-21T10:08:17.585Z,12.17
2023-02-21T10:10:47.176Z,11.17
2023-02-21T10:13:28.585Z,10.83
2023-02-21T10:16:02.010Z,9.97
2023-02-21T10:18:38.427Z,10.97
2023-02-21T10:21:14.684Z,10.90
2023-02-21T10:23:46.773Z,10.90
2023-02-21T10:26:19.733Z,10.80
2023-02-21T10:28:46.875Z,12.27
2023-02-21T10:31:19.236Z,10.73
2023-02-21T10:33:46.341Z,10.20
2023-02-21T10:36:16.646Z,11.33
2023-02-21T10:38:53.908Z,11.03
2023-02-21T10:41:22.275Z,10.57
2023-02-21T10:43:53.118Z,10.60
2023-02-21T10:46:25.686Z,10.80
2023-02-21T10:48:55.607Z,10.50
2023-02-21T10:51:30.490Z,11.63
2023-02-21T10:54:18.445Z,9.70
2023-02-21T10:56:45.390Z,10.07
2023-02-21T10:59:21.276Z,9.93
2023-02-21T11:01:49.201Z,10.93
2023-02-21T11:04:27.597Z,10.30
2023-02-21T11:06:57.082Z,9.27
2023-02-21T11:09:32.902Z,9.67
2023-02-21T11:12:02.938Z,9.73
2023-02-21T11:14:32.104Z,9.77
2023-02-21T11:17:15.050Z,9.60
2023-02-21T11:19:53.608Z,8.93
2023-02-21T11:22:24.081Z,8.63
2023-02-21T11:24:59.157Z,9.20
2023-02-21T11:27:28.260Z,8.27
2023-02-21T11:29:55.872Z,8.70
2023-02-21T11:32:29.733Z,8.17
2023-02-21T11:35:23.984Z,7.93
2023-02-21T11:37:53.601Z,8.07
2023-02-21T11:40:28.894Z,7.57
2023-02-21T11:43:16.727Z,7.73
2023-02-21T11:45:52.672Z,7.33
2023-02-21T11:48:20.569Z,8.23
2023-02-21T11:50:51.921Z,8.67
2023-02-21T11:53:23.045Z,6.83
2023-02-21T11:55:58.123Z,7.43
2023-02-21T11:58:30.377Z,8.10
2023-02-21T12:01:05.528Z,7.43
2023-02-21T12:03:57.594Z,7.33
2023-02-21T12:06:33.310Z,7.10
2023-02-21T12:09:04.427Z,6.37
2023-02-21T12:11:43.676Z,7.23
2023-02-21T12:14:22.255Z,5.63
2023-02-21T12:17:01.121Z,5.23
2023-02-21T12:19:41.255Z,5.90
2023-02-21T12:22:20.198Z,5.20
2023-02-21T12:24:56.079Z,5.83
2023-02-21T12:27:32.288Z,5.23
2023-02-21T12:30:36.632Z,5.10
2023-02-21T12:33:19.411Z,4.40
2023-02-21T12:36:20.337Z,4.27
2023-02-21T12:39:00.504Z,4.60
2023-02-21T12:42:02.556Z,4.43
2023-02-21T12:44:41.483Z,5.17
2023-02-21T12:47:13.314Z,4.00
2023-02-21T12:49:45.965Z,4.80
2023-02-21T12:52:18.673Z,5.13
2023-02-21T12:54:59.050Z,5.43
2023-02-21T12:57:32.909Z,6.10
2023-02-21T13:00:17.950Z,5.60
2023-02-21T13:03:00.083Z,6.40
2023-02-21T13:05:36.403Z,6.67
2023-02-21T13:08:10.788Z,5.53
2023-02-21T13:10:49.063Z,5.23
2023-02-21T13:13:20.716Z,6.40
2023-02-21T13:15:49.716Z,6.43
2023-02-21T13:18:21.649Z,6.47
2023-02-21T13:20:53.744Z,6.90
2023-02-21T13:24:01.263Z,6.23
2023-02-21T13:26:55.855Z,6.60
2023-02-21T13:29:25.753Z,7.03
2023-02-21T13:32:00.413Z,6.70
2023-02-21T13:34:30.875Z,6.50
2023-02-21T13:37:03.120Z,6.63
2023-02-21T13:39:37.386Z,6.53
2023-02-21T13:42:08.137Z,6.40
2023-02-21T13:44:38.664Z,6.97
2023-02-21T13:47:10.967Z,7.00
2023-02-21T13:49:42.737Z,7.20
2023-02-21T13:52:48.313Z,7.03
2023-02-21T13:55:26.555Z,6.43
2023-02-21T13:58:28.847Z,6.33
2023-02-21T14:00:56.205Z,7.30
2023-02-21T14:03:33.778Z,7.00
2023-02-21T14:06:29.744Z,6.77
2023-02-21T14:09:01.335Z,7.07
2023-02-21T14:11:32.026Z,6.80
2023-02-21T14:14:02.151Z,7.37
2023-02-21T14:16:33.861Z,6.33
2023-02-21T14:19:06.321Z,7.17
2023-02-21T14:21:36.371Z,6.27
2023-02-21T14:24:11.215Z,6.70
2023-02-21T14:26:42.564Z,6.60
2023-02-21T14:29:31.163Z,6.55
2023-02-21T14:32:22.773Z,6.50
2023-02-21T14:34:54.529Z,6.13
2023-02-21T14:37:25.437Z,5.97
2023-02-21T14:39:54.773Z,6.07
2023-02-21T14:42:36.262Z,5.93
2023-02-21T14:45:23.991Z,6.03
2023-02-21T14:48:08.280Z,6.13
2023-02-21T14:50:54.867Z,5.67
2023-02-21T14:53:57.021Z,5.30
2023-02-21T14:56:46.913Z,5.23
2023-02-21T14:59:45.220Z,5.27
2023-02-21T15:02:23.820Z,5.47
2023-02-21T15:04:57.798Z,5.53
2023-02-21T15:07:32.967Z,6.53
2023-02-21T15:10:21.537Z,5.70
2023-02-21T15:12:51.499Z,5.73
2023-02-21T15:15:23.200Z,5.97
2023-02-21T15:18:03.525Z,6.23
2023-02-21T15:20:31.694Z,5.80
2023-02-21T15:23:04.788Z,5.80
2023-02-21T15:25:31.745Z,6.00
2023-02-21T15:28:04.919Z,5.27
2023-02-21T15:30:40.325Z,6.53
2023-02-21T15:33:19.217Z,5.70
2023-02-21T15:35:50.611Z,6.13
2023-02-21T15:38:26.316Z,6.23
2023-02-21T15:40:56.754Z,6.33
2023-02-21T15:43:31.553Z,5.63
2023-02-21T15:46:01.225Z,6.83
2023-02-21T15:48:28.743Z,5.70
2023-02-21T15:51:01.802Z,5.50
2023-02-21T15:53:30.154Z,5.70
2023-02-21T15:56:17.294Z,6.73
2023-02-21T15:59:16.613Z,6.00
2023-02-21T16:01:43.615Z,5.87
2023-02-21T16:04:21.865Z,5.23
2023-02-21T16:06:52.302Z,5.60
2023-02-21T16:09:27.954Z,5.60
2023-02-21T16:11:59.831Z,6.10
2023-02-21T16:14:37.080Z,5.67
2023-02-21T16:17:21.410Z,5.13
2023-02-21T16:19:52.479Z,4.70
2023-02-21T16:22:26.971Z,5.00
2023-02-21T16:25:12.773Z,6.17
2023-02-21T16:27:41.210Z,6.10
2023-02-21T16:30:15.250Z,5.80
2023-02-21T16:32:44.686Z,5.83
2023-02-21T16:35:20.381Z,6.10
2023-02-21T16:37:48.984Z,5.60
2023-02-21T16:40:22.389Z,6.10
2023-02-21T16:42:49.461Z,6.07
2023-02-21T16:45:16.335Z,6.20
2023-02-21T16:47:48.765Z,6.63
2023-02-21T16:50:19.633Z,7.10
2023-02-21T16:52:47.130Z,7.40
2023-02-21T16:55:19.465Z,7.90
2023-02-21T16:57:48.091Z,7.17
2023-02-21T17:00:17.016Z,7.37
2023-02-21T17:02:43.999Z,7.20
2023-02-21T17:05:11.910Z,7.00
2023-02-21T17:07:39.024Z,7.23
2023-02-21T17:10:06.566Z,7.37
2023-02-21T17:12:34.776Z,7.70
2023-02-21T17:15:01.762Z,8.27
2023-02-21T17:17:28.651Z,7.93
2023-02-21T17:19:55.495Z,8.97
2023-02-21T17:22:22.416Z,7.53
2023-02-21T17:24:49.348Z,8.23
2023-02-21T17:27:16.438Z,7.73
2023-02-21T17:29:46.679Z,8.17
2023-02-21T17:32:15.942Z,6.93
2023-02-21T17:34:43.564Z,7.77
2023-02-21T17:37:10.529Z,6.67
2023-02-21T17:39:37.391Z,7.07
2023-02-21T17:42:04.683Z,6.80
2023-02-21T17:44:33.393Z,6.90
2023-02-21T17:47:01.849Z,7.13
2023-02-21T17:49:28.894Z,8.97
2023-02-21T17:51:55.771Z,8.87
2023-02-21T17:54:24.924Z,8.30
2023-02-21T17:56:52.152Z,8.90
2023-02-21T17:59:19.577Z,7.70
2023-02-21T18:01:46.774Z,8.63
2023-02-21T18:04:15.215Z,8.27
2023-02-21T18:06:42.967Z,8.67
2023-02-21T18:09:10.986Z,8.60
2023-02-21T18:11:37.961Z,7.23
2023-02-21T18:14:05.491Z,7.43
2023-02-21T18:16:32.438Z,7.50
2023-02-21T18:18:59.312Z,6.83
2023-02-21T18:21:27.642Z,6.50
2023-02-21T18:23:54.925Z,6.83
2023-02-21T18:26:21.923Z,6.70
2023-02-21T18:28:49.023Z,6.97
2023-02-21T18:31:16.715Z,6.27
2023-02-21T18:33:43.844Z,5.50
2023-02-21T18:36:10.892Z,5.53
2023-02-21T18:38:41.446Z,5.07
2023-02-21T18:41:11.956Z,5.60
2023-02-21T18:43:40.651Z,5.40
2023-02-21T18:46:10.769Z,5.50
2023-02-21T18:48:38.376Z,4.63
2023-02-21T18:51:09.358Z,5.30
2023-02-21T18:53:36.486Z,3.87
2023-02-21T18:56:08.876Z,3.97
2023-02-21T18:58:35.717Z,4.00
2023-02-21T19:01:02.653Z,3.80
2023-02-21T19:03:29.691Z,3.90
2023-02-21T19:05:56.622Z,4.87
2023-02-21T19:08:23.471Z,4.10
2023-02-21T19:10:52.526Z,4.30
2023-02-21T19:13:20.838Z,4.50
2023-02-21T19:15:47.716Z,4.07
2023-02-21T19:18:14.697Z,4.47
2023-02-21T19:20:43.643Z,4.10
2023-02-21T19:23:12.049Z,4.03
2023-02-21T19:25:39.553Z,4.03
2023-02-21T19:28:07.169Z,3.87
2023-02-21T19:30:36.825Z,4.00
2023-02-21T19:33:06.214Z,4.17
2023-02-21T19:35:34.284Z,4.67
2023-02-21T19:38:04.362Z,4.40
2023-02-21T19:40:31.265Z,4.37
2023-02-21T19:42:58.376Z,4.83
2023-02-21T19:45:25.434Z,6.00
2023-02-21T19:47:53.772Z,6.87
2023-02-21T19:50:20.920Z,6.13
2023-02-21T19:52:52.411Z,7.00
2023-02-21T19:55:19.334Z,5.87
2023-02-21T19:57:46.248Z,5.97
2023-02-21T20:00:13.860Z,6.07
2023-02-21T20:02:40.797Z,5.23
2023-02-21T20:05:09.514Z,5.90
2023-02-21T20:07:36.466Z,5.33
2023-02-21T20:10:03.481Z,5.20
2023-02-21T20:12:30.342Z,4.60
2023-02-21T20:14:57.404Z,4.90
2023-02-21T20:17:25.070Z,5.10
2023-02-21T20:19:52.122Z,5.23
2023-02-21T20:22:20.347Z,5.30
2023-02-21T20:24:47.451Z,4.80
2023-02-21T20:27:15.174Z,4.50
2023-02-21T20:29:42.127Z,5.67
2023-02-21T20:32:09.219Z,5.47
2023-02-21T20:34:38.851Z,6.20
2023-02-21T20:37:05.877Z,6.97
2023-02-21T20:39:34.857Z,7.57
2023-02-21T20:42:02.678Z,7.20
2023-02-21T20:44:34.190Z,6.70
2023-02-21T20:47:01.610Z,6.33
2023-02-21T20:49:28.584Z,5.10
2023-02-21T20:51:55.584Z,5.10
2023-02-21T20:54:22.958Z,7.00
2023-02-21T20:56:52.539Z,6.47
2023-02-21T20:59:22.820Z,7.17
2023-02-21T21:01:50.345Z,7.53
2023-02-21T21:04:19.123Z,8.60
2023-02-21T21:06:47.080Z,8.70
2023-02-21T21:09:18.037Z,8.87
2023-02-21T21:11:45.750Z,7.90
2023-02-21T21:14:16.404Z,7.80
2023-02-21T21:16:43.820Z,9.03
2023-02-21T21:19:11.537Z,9.10
2023-02-21T21:21:38.488Z,8.80
2023-02-21T21:24:07.214Z,9.63
2023-02-21T21:26:34.402Z,8.03
2023-02-21T21:29:01.954Z,10.20
2023-02-21T21:31:33.385Z,9.00
2023-02-21T21:34:00.582Z,8.10
2023-02-21T21:36:27.653Z,7.30
2023-02-21T21:38:54.519Z,8.80
2023-02-21T21:41:22.159Z,8.10
2023-02-21T21:43:49.176Z,8.17
2023-02-21T21:46:16.143Z,7.50
2023-02-21T21:48:45.092Z,7.13
2023-02-21T21:51:14.082Z,7.33
2023-02-21T21:53:41.597Z,7.80
2023-02-21T21:56:09.612Z,6.80
2023-02-21T21:58:36.413Z,7.57
2023-02-21T22:01:05.362Z,9.15
2023-02-21T22:03:32.841Z,8.43
2023-02-21T22:06:01.118Z,6.90
2023-02-21T22:08:29.235Z,6.13
2023-02-21T22:10:59.445Z,6.20
2023-02-21T22:13:29.276Z,6.63
2023-02-21T22:15:56.565Z,5.27
2023-02-21T22:18:24.062Z,5.40
2023-02-21T22:20:50.939Z,5.00
2023-02-21T22:23:21.339Z,5.50
2023-02-21T22:25:48.406Z,4.57
2023-02-21T22:28:16.192Z,4.33
2023-02-21T22:30:43.147Z,4.83
2023-02-21T22:33:13.495Z,4.13
2023-02-21T22:35:40.851Z,4.47
2023-02-21T22:38:14.076Z,4.10
2023-02-21T22:40:42.962Z,5.60
2023-02-21T22:43:10.459Z,5.77
2023-02-21T22:45:38.318Z,7.10
2023-02-21T22:48:07.483Z,5.97
2023-02-21T22:50:36.945Z,4.70
2023-02-21T22:53:08.117Z,4.40
2023-02-21T22:55:36.992Z,4.90
2023-02-21T22:58:06.961Z,5.50
2023-02-21T23:00:35.587Z,7.10
2023-02-21T23:03:12.726Z,6.87
2023-02-21T23:05:40.609Z,6.37
2023-02-21T23:08:07.581Z,5.20
2023-02-21T23:10:34.479Z,4.63
2023-02-21T23:13:01.411Z,4.73
2023-02-21T23:15:29.573Z,6.50
2023-02-21T23:17:56.464Z,7.03
2023-02-21T23:20:29.755Z,7.60
2023-02-21T23:22:59.007Z,7.50
2023-02-21T23:25:27.593Z,7.30
2023-02-21T23:27:56.051Z,7.00
2023-02-21T23:30:36.238Z,6.53
2023-02-21T23:33:06.347Z,6.50
2023-02-21T23:35:34.821Z,8.13
2023-02-21T23:38:02.130Z,7.90
2023-02-21T23:40:32.133Z,7.10
2023-02-21T23:43:00.905Z,5.90
2023-02-21T23:45:27.753Z,5.93
2023-02-21T23:47:55.863Z,6.20
2023-02-21T23:50:30.466Z,6.10
2023-02-21T23:53:02.427Z,6.00
2023-02-21T23:55:30.000Z,6.17
2023-02-21T23:57:59.960Z,6.73
